SLR weather

Sulphur Springs Municipal Airport
Sulphur Springs, Texas, United States

Public forecast

Using degrees Fahrenheit for public forecast. Weather courtesy of forecast.io.

METAR (pilot weather report)

Retrieved 2019/07/17 03:35 UTC (2 minutes ago):

KSLR 170335Z AUTO 17006KT 10SM CLR 29/23 A2998 RMK AO2 T02940231

TAF (pilot weather forecast)

Forecast is more than 12 hours old.

Closest forecast is Tyler Pounds Regional Airport, 49.6 nm (91.9 km) SSE. Retrieved 2019/07/16 00:36 UTC (1 day ago):

TAF KTYR 162335Z 1700/1724 18008KT P6SM SKC TEMPO 1700/1702 20012G18KT FM170900 19007KT P6SM BKN020 TEMPO 1710/1714 OVC010 FM171600 20012KT P6SM SCT035